Gildeskaal — LLDI — position and weather

sailwx.info

Track history (hours):
 
Tides and Currents Weather Stations Pressure Air Temp Water Temp Dewpoint Dewpoint Depression Visibility Wind Speed Wind Dir Waves Ship Positions

Gildeskaal

Last reported at 2015-Jan-31 16:32 UTC. Time now 2015-Jan-31 21:09 UTC.
Position N 67°05' E 014°00'.

Length 52 m; draft 3.2 m.

Type: Ship. MMSI: 259680000.

Date/timePositionNaut miles runAvg speedWind from/ knotsBaromVisibWave heightAir tempDewpointWater temp
2015-Jan-31 16:32N 67°05' E 014°00'1 0.2
2015-Jan-31 10:33N 67°06' E 013°59'2 2.2
2015-Jan-31 09:32N 67°08' E 013°59'1 0.9
2015-Jan-31 08:33N 67°07' E 013°59'2 1.8
2015-Jan-31 07:22N 67°05' E 014°00'3 3.0
2015-Jan-31 06:22N 67°08' E 013°59'0 0.0
2015-Jan-31 05:33N 67°08' E 013°59'0 0.0
2015-Jan-31 03:33N 67°08' E 013°59'0 0.0
2015-Jan-31 02:12N 67°08' E 013°59'0 0.0
2015-Jan-31 00:24N 67°08' E 013°59'0 0.0
2015-Jan-30 20:20N 67°08' E 013°59'3 2.6
2015-Jan-30 19:12N 67°05' E 013°60'2 3.1
2015-Jan-30 18:33N 67°07' E 013°59'2 1.0
2015-Jan-30 16:33N 67°05' E 013°60'0 0.1
2015-Jan-30 14:23N 67°05' E 014°00'3 2.4
2015-Jan-30 13:07N 67°08' E 013°59'2 0.7
2015-Jan-30 10:28N 67°06' E 013°58'2 1.9
2015-Jan-30 09:30N 67°08' E 013°59'1 0.9
2015-Jan-30 08:33N 67°07' E 013°59'2 1.0
2015-Jan-30 06:22N 67°05' E 013°60'3 1.6
2015-Jan-30 04:28N 67°08' E 013°59'0 0.0
2015-Jan-30 02:24N 67°08' E 013°59'0 0.0
2015-Jan-30 01:12N 67°08' E 013°59'0 0.0
2015-Jan-30 00:28N 67°08' E 013°59'0 0.0
2015-Jan-29 23:21N 67°08' E 013°59'0 0.0
2015-Jan-29 20:19N 67°08' E 013°59'3 2.7
2015-Jan-29 19:14N 67°05' E 013°60'1 1.8
2015-Jan-29 18:30N 67°06' E 013°59'1 0.9
2015-Jan-29 17:31N 67°06' E 013°59'1 0.2
2015-Jan-29 14:22N 67°05' E 014°00'3 3.6
2015-Jan-29 13:31N 67°08' E 013°59'4 1.7
2015-Jan-29 11:20N 67°05' E 014°04'2 2.6
2015-Jan-29 10:33N 67°06' E 013°59'2 0.8
2015-Jan-29 08:33N 67°07' E 013°59'2 1.0
2015-Jan-29 06:22N 67°05' E 014°00'3 0.8
2015-Jan-29 02:19N 67°08' E 013°59'0 0.0
2015-Jan-28 20:19N 67°08' E 013°59'3 2.9
2015-Jan-28 19:16N 67°05' E 014°00'1 1.8
2015-Jan-28 18:29N 67°06' E 013°59'1 1.5
2015-Jan-28 17:33N 67°05' E 014°00'0 0.0
2015-Jan-28 14:23N 67°05' E 014°00'3 1.4
2015-Jan-28 12:10N 67°08' E 013°59'3 4.2
2015-Jan-28 11:31N 67°05' E 013°59'1 0.9
2015-Jan-28 10:28N 67°06' E 013°58'0 0.2
2015-Jan-28 08:31N 67°07' E 013°59'2 0.8
2015-Jan-28 06:22N 67°05' E 013°60'3 3.3
2015-Jan-28 05:28N 67°08' E 013°59'0 0.0
2015-Jan-27 20:22N 67°08' E 013°59'3 2.5
2015-Jan-27 19:11N 67°05' E 013°60'1 2.0
2015-Jan-27 18:30N 67°07' E 013°59'1 0.8
2015-Jan-27 17:27N 67°06' E 013°59'0 0.0
2015-Jan-27 14:16N 67°06' E 013°59'0 0.0
2015-Jan-27 10:31N 67°06' E 013°58'2 2.3
2015-Jan-27 09:32N 67°08' E 013°59'1 1.4
2015-Jan-27 08:31N 67°07' E 013°59'2 0.8
2015-Jan-27 06:23N 67°05' E 014°00'3 3.7
2015-Jan-27 05:32N 67°08' E 013°59'0 0.0
2015-Jan-27 04:33N 67°08' E 013°59'0 0.0
2015-Jan-27 03:33N 67°08' E 013°59'0 0.0
2015-Jan-27 02:33N 67°08' E 013°59'0 0.0
2015-Jan-27 01:33N 67°08' E 013°59'0 0.0
2015-Jan-27 00:33N 67°08' E 013°59'0 0.0
2015-Jan-26 23:33N 67°08' E 013°59'0 0.0
2015-Jan-26 22:33N 67°08' E 013°59'0 0.0
2015-Jan-26 21:33N 67°08' E 013°59'0 0.0
2015-Jan-26 20:33N 67°08' E 013°59'3 2.2
2015-Jan-26 19:12N 67°05' E 013°60'2 2.2
2015-Jan-26 18:30N 67°07' E 013°59'2 1.7
2015-Jan-26 17:32N 67°05' E 014°00'3 2.9
2015-Jan-26 16:29N 67°08' E 013°59'0 0.0
2015-Jan-26 13:31N 67°08' E 013°59'2 0.6
2015-Jan-26 10:28N 67°06' E 013°58'2 2.0
2015-Jan-26 09:33N 67°08' E 013°59'1 1.3
2015-Jan-26 08:31N 67°07' E 013°59'2 0.8
2015-Jan-26 06:23N 67°05' E 014°00'3 3.7
2015-Jan-26 05:33N 67°08' E 013°59'0 0.0
2015-Jan-26 04:32N 67°08' E 013°59'0 0.0
2015-Jan-26 03:33N 67°08' E 013°59'0 0.0
2015-Jan-26 02:22N 67°08' E 013°59'0 0.0
2015-Jan-26 01:24N 67°08' E 013°59'0 0.0
2015-Jan-25 20:05N 67°08' E 013°59'3 1.7
2015-Jan-25 18:17N 67°05' E 013°60'2 3.2
2015-Jan-25 17:33N 67°08' E 013°59'2 1.7
2015-Jan-25 16:10N 67°05' E 013°60'3 4.9
2015-Jan-25 15:33N 67°08' E 013°59'1 1.3
2015-Jan-25 14:31N 67°07' E 013°59'2 0.3
2015-Jan-25 09:12N 67°05' E 013°60'3 3.8
2015-Jan-25 08:33N 67°08' E 013°59'3 0.2
2015-Jan-24 16:32N 67°05' E 014°00'1 0.1
2015-Jan-24 10:33N 67°06' E 013°59'2 0.7
2015-Jan-24 08:33N 67°07' E 013°59'2 1.8
2015-Jan-24 07:24N 67°05' E 014°00'3 1.0
2015-Jan-24 04:14N 67°08' E 013°59'0 0.0
2015-Jan-24 03:32N 67°08' E 013°59'0 0.0
2015-Jan-24 02:06N 67°08' E 013°59'0 0.0
2015-Jan-24 01:12N 67°08' E 013°59'0 0.0
2015-Jan-24 00:27N 67°08' E 013°59'0 0.0
2015-Jan-23 20:23N 67°08' E 013°59'3 2.7
2015-Jan-23 19:15N 67°05' E 014°00'2 2.2
2015-Jan-23 18:30N 67°07' E 013°59'1 0.4
2015-Jan-23 16:33N 67°08' E 013°59'2 1.1
2015-Jan-23 14:23N 67°05' E 014°00'3 3.0
2015-Jan-23 13:22N 67°08' E 013°59'0 0.0
2015-Jan-23 12:23N 67°08' E 013°59'2 1.1
2015-Jan-23 10:30N 67°06' E 013°58'1 0.3
2015-Jan-23 08:31N 67°07' E 013°59'1 0.7
2015-Jan-23 06:21N 67°05' E 013°60'3 1.7
2015-Jan-23 04:33N 67°08' E 013°59'0 0.0
2015-Jan-23 03:33N 67°08' E 013°59'0 0.0
2015-Jan-23 02:33N 67°08' E 013°59'0 0.0
2015-Jan-23 01:33N 67°08' E 013°59'0 0.0
2015-Jan-23 00:21N 67°08' E 013°59'0 0.0
2015-Jan-22 23:28N 67°08' E 013°59'0 0.0
2015-Jan-22 22:06N 67°08' E 013°59'1 0.8
2015-Jan-22 20:32N 67°07' E 013°59'2 1.8
2015-Jan-22 19:33N 67°05' E 013°60'1 1.4
2015-Jan-22 18:33N 67°07' E 013°59'1 1.5
2015-Jan-22 17:33N 67°05' E 014°00'3 2.5
2015-Jan-22 16:21N 67°08' E 013°59'2 0.8
2015-Jan-22 14:12N 67°06' E 013°58'2 0.9
2015-Jan-22 12:17N 67°08' E 013°59'2 1.4
2015-Jan-22 10:33N 67°06' E 013°59'1 0.4
2015-Jan-22 08:31N 67°07' E 013°59'1 0.7
2015-Jan-22 06:22N 67°05' E 013°60'3 1.1
2015-Jan-22 03:32N 67°08' E 013°59'0 0.0
2015-Jan-22 02:24N 67°08' E 013°59'0 0.0
2015-Jan-22 01:28N 67°08' E 013°59'0 0.0
2015-Jan-22 00:07N 67°08' E 013°59'0 0.0
2015-Jan-21 23:27N 67°08' E 013°59'0 0.0
2015-Jan-21 22:40N 67°08' E 013°59'0 0.0
2015-Jan-21 20:28N 67°08' E 013°59'3 2.9
2015-Jan-21 19:25N 67°05' E 013°60'1 1.6
2015-Jan-21 18:33N 67°07' E 013°59'1 1.4
2015-Jan-21 17:32N 67°05' E 013°60'  
Track history (hours):
 
Tides and Currents Weather Stations Pressure Air Temp Water Temp Dewpoint Dewpoint Depression Visibility Wind Speed Wind Dir Waves Ship Positions

Gildeskaal

Last reported at 2015-Jan-31 16:32 UTC. Time now 2015-Jan-31 21:09 UTC.
Position N 67°05' E 014°00'.

Length 52 m; draft 3.2 m.

Type: Ship. MMSI: 259680000.

Date/timePositionNaut miles runAvg speedWind from/ knotsBaromVisibWave heightAir tempDewpointWater temp
2015-Jan-31 16:32N 67°05' E 014°00'1 0.2
2015-Jan-31 10:33N 67°06' E 013°59'2 2.2
2015-Jan-31 09:32N 67°08' E 013°59'1 0.9
2015-Jan-31 08:33N 67°07' E 013°59'2 1.8
2015-Jan-31 07:22N 67°05' E 014°00'3 3.0
2015-Jan-31 06:22N 67°08' E 013°59'0 0.0
2015-Jan-31 05:33N 67°08' E 013°59'0 0.0
2015-Jan-31 03:33N 67°08' E 013°59'0 0.0
2015-Jan-31 02:12N 67°08' E 013°59'0 0.0
2015-Jan-31 00:24N 67°08' E 013°59'0 0.0
2015-Jan-30 20:20N 67°08' E 013°59'3 2.6
2015-Jan-30 19:12N 67°05' E 013°60'2 3.1
2015-Jan-30 18:33N 67°07' E 013°59'2 1.0
2015-Jan-30 16:33N 67°05' E 013°60'0 0.1
2015-Jan-30 14:23N 67°05' E 014°00'3 2.4
2015-Jan-30 13:07N 67°08' E 013°59'2 0.7
2015-Jan-30 10:28N 67°06' E 013°58'2 1.9
2015-Jan-30 09:30N 67°08' E 013°59'1 0.9
2015-Jan-30 08:33N 67°07' E 013°59'2 1.0
2015-Jan-30 06:22N 67°05' E 013°60'3 1.6
2015-Jan-30 04:28N 67°08' E 013°59'0 0.0
2015-Jan-30 02:24N 67°08' E 013°59'0 0.0
2015-Jan-30 01:12N 67°08' E 013°59'0 0.0
2015-Jan-30 00:28N 67°08' E 013°59'0 0.0
2015-Jan-29 23:21N 67°08' E 013°59'0 0.0
2015-Jan-29 20:19N 67°08' E 013°59'3 2.7
2015-Jan-29 19:14N 67°05' E 013°60'1 1.8
2015-Jan-29 18:30N 67°06' E 013°59'1 0.9
2015-Jan-29 17:31N 67°06' E 013°59'1 0.2
2015-Jan-29 14:22N 67°05' E 014°00'3 3.6
2015-Jan-29 13:31N 67°08' E 013°59'4 1.7
2015-Jan-29 11:20N 67°05' E 014°04'2 2.6
2015-Jan-29 10:33N 67°06' E 013°59'2 0.8
2015-Jan-29 08:33N 67°07' E 013°59'2 1.0
2015-Jan-29 06:22N 67°05' E 014°00'3 0.8
2015-Jan-29 02:19N 67°08' E 013°59'0 0.0
2015-Jan-28 20:19N 67°08' E 013°59'3 2.9
2015-Jan-28 19:16N 67°05' E 014°00'1 1.8
2015-Jan-28 18:29N 67°06' E 013°59'1 1.5
2015-Jan-28 17:33N 67°05' E 014°00'0 0.0
2015-Jan-28 14:23N 67°05' E 014°00'3 1.4
2015-Jan-28 12:10N 67°08' E 013°59'3 4.2
2015-Jan-28 11:31N 67°05' E 013°59'1 0.9
2015-Jan-28 10:28N 67°06' E 013°58'0 0.2
2015-Jan-28 08:31N 67°07' E 013°59'2 0.8
2015-Jan-28 06:22N 67°05' E 013°60'3 3.3
2015-Jan-28 05:28N 67°08' E 013°59'0 0.0
2015-Jan-27 20:22N 67°08' E 013°59'3 2.5
2015-Jan-27 19:11N 67°05' E 013°60'1 2.0
2015-Jan-27 18:30N 67°07' E 013°59'1 0.8
2015-Jan-27 17:27N 67°06' E 013°59'0 0.0
2015-Jan-27 14:16N 67°06' E 013°59'0 0.0
2015-Jan-27 10:31N 67°06' E 013°58'2 2.3
2015-Jan-27 09:32N 67°08' E 013°59'1 1.4
2015-Jan-27 08:31N 67°07' E 013°59'2 0.8
2015-Jan-27 06:23N 67°05' E 014°00'3 3.7
2015-Jan-27 05:32N 67°08' E 013°59'0 0.0
2015-Jan-27 04:33N 67°08' E 013°59'0 0.0
2015-Jan-27 03:33N 67°08' E 013°59'0 0.0
2015-Jan-27 02:33N 67°08' E 013°59'0 0.0
2015-Jan-27 01:33N 67°08' E 013°59'0 0.0
2015-Jan-27 00:33N 67°08' E 013°59'0 0.0
2015-Jan-26 23:33N 67°08' E 013°59'0 0.0
2015-Jan-26 22:33N 67°08' E 013°59'0 0.0
2015-Jan-26 21:33N 67°08' E 013°59'0 0.0
2015-Jan-26 20:33N 67°08' E 013°59'3 2.2
2015-Jan-26 19:12N 67°05' E 013°60'2 2.2
2015-Jan-26 18:30N 67°07' E 013°59'2 1.7
2015-Jan-26 17:32N 67°05' E 014°00'3 2.9
2015-Jan-26 16:29N 67°08' E 013°59'0 0.0
2015-Jan-26 13:31N 67°08' E 013°59'2 0.6
2015-Jan-26 10:28N 67°06' E 013°58'2 2.0
2015-Jan-26 09:33N 67°08' E 013°59'1 1.3
2015-Jan-26 08:31N 67°07' E 013°59'2 0.8
2015-Jan-26 06:23N 67°05' E 014°00'3 3.7
2015-Jan-26 05:33N 67°08' E 013°59'0 0.0
2015-Jan-26 04:32N 67°08' E 013°59'0 0.0
2015-Jan-26 03:33N 67°08' E 013°59'0 0.0
2015-Jan-26 02:22N 67°08' E 013°59'0 0.0
2015-Jan-26 01:24N 67°08' E 013°59'0 0.0
2015-Jan-25 20:05N 67°08' E 013°59'3 1.7
2015-Jan-25 18:17N 67°05' E 013°60'2 3.2
2015-Jan-25 17:33N 67°08' E 013°59'2 1.7
2015-Jan-25 16:10N 67°05' E 013°60'3 4.9
2015-Jan-25 15:33N 67°08' E 013°59'1 1.3
2015-Jan-25 14:31N 67°07' E 013°59'2 0.3
2015-Jan-25 09:12N 67°05' E 013°60'3 3.8
2015-Jan-25 08:33N 67°08' E 013°59'3 0.2
2015-Jan-24 16:32N 67°05' E 014°00'1 0.1
2015-Jan-24 10:33N 67°06' E 013°59'2 0.7
2015-Jan-24 08:33N 67°07' E 013°59'2 1.8
2015-Jan-24 07:24N 67°05' E 014°00'3 1.0
2015-Jan-24 04:14N 67°08' E 013°59'0 0.0
2015-Jan-24 03:32N 67°08' E 013°59'0 0.0
2015-Jan-24 02:06N 67°08' E 013°59'0 0.0
2015-Jan-24 01:12N 67°08' E 013°59'0 0.0
2015-Jan-24 00:27N 67°08' E 013°59'0 0.0
2015-Jan-23 20:23N 67°08' E 013°59'3 2.7
2015-Jan-23 19:15N 67°05' E 014°00'2 2.2
2015-Jan-23 18:30N 67°07' E 013°59'1 0.4
2015-Jan-23 16:33N 67°08' E 013°59'2 1.1
2015-Jan-23 14:23N 67°05' E 014°00'3 3.0
2015-Jan-23 13:22N 67°08' E 013°59'0 0.0
2015-Jan-23 12:23N 67°08' E 013°59'2 1.1
2015-Jan-23 10:30N 67°06' E 013°58'1 0.3
2015-Jan-23 08:31N 67°07' E 013°59'1 0.7
2015-Jan-23 06:21N 67°05' E 013°60'3 1.7
2015-Jan-23 04:33N 67°08' E 013°59'0 0.0
2015-Jan-23 03:33N 67°08' E 013°59'0 0.0
2015-Jan-23 02:33N 67°08' E 013°59'0 0.0
2015-Jan-23 01:33N 67°08' E 013°59'0 0.0
2015-Jan-23 00:21N 67°08' E 013°59'0 0.0
2015-Jan-22 23:28N 67°08' E 013°59'0 0.0
2015-Jan-22 22:06N 67°08' E 013°59'1 0.8
2015-Jan-22 20:32N 67°07' E 013°59'2 1.8
2015-Jan-22 19:33N 67°05' E 013°60'1 1.4
2015-Jan-22 18:33N 67°07' E 013°59'1 1.5
2015-Jan-22 17:33N 67°05' E 014°00'3 2.5
2015-Jan-22 16:21N 67°08' E 013°59'2 0.8
2015-Jan-22 14:12N 67°06' E 013°58'2 0.9
2015-Jan-22 12:17N 67°08' E 013°59'2 1.4
2015-Jan-22 10:33N 67°06' E 013°59'1 0.4
2015-Jan-22 08:31N 67°07' E 013°59'1 0.7
2015-Jan-22 06:22N 67°05' E 013°60'3 1.1
2015-Jan-22 03:32N 67°08' E 013°59'0 0.0
2015-Jan-22 02:24N 67°08' E 013°59'0 0.0
2015-Jan-22 01:28N 67°08' E 013°59'0 0.0
2015-Jan-22 00:07N 67°08' E 013°59'0 0.0
2015-Jan-21 23:27N 67°08' E 013°59'0 0.0
2015-Jan-21 22:40N 67°08' E 013°59'0 0.0
2015-Jan-21 20:28N 67°08' E 013°59'3 2.9
2015-Jan-21 19:25N 67°05' E 013°60'1 1.6
2015-Jan-21 18:33N 67°07' E 013°59'1 1.4
2015-Jan-21 17:32N 67°05' E 013°60'  

Dump ship's entire track history